sensor_id;sensor_type;location;lat;lon;timestamp;pressure;altitude;pressure_sealevel;temperature;humidity
9077;BME280;4574;51.072;17.174;2023-08-21T00:00:08;100602.44;;;25.22;100.00
9077;BME280;4574;51.072;17.174;2023-08-21T00:02:44;100605.63;;;25.19;100.00
9077;BME280;4574;51.072;17.174;2023-08-21T00:05:12;100601.50;;;25.16;100.00
9077;BME280;4574;51.072;17.174;2023-08-21T00:07:41;100600.03;;;25.14;100.00
9077;BME280;4574;51.072;17.174;2023-08-21T00:10:10;100594.41;;;25.15;100.00
9077;BME280;4574;51.072;17.174;2023-08-21T00:12:41;100598.97;;;25.15;100.00
9077;BME280;4574;51.072;17.174;2023-08-21T00:15:11;100597.31;;;25.14;100.00
9077;BME280;4574;51.072;17.174;2023-08-21T00:17:39;100597.78;;;25.11;100.00
9077;BME280;4574;51.072;17.174;2023-08-21T00:20:09;100598.25;;;25.08;100.00
9077;BME280;4574;51.072;17.174;2023-08-21T00:22:37;100603.06;;;25.06;100.00
9077;BME280;4574;51.072;17.174;2023-08-21T00:25:07;100606.25;;;25.03;100.00
9077;BME280;4574;51.072;17.174;2023-08-21T00:27:35;100600.81;;;25.03;100.00
9077;BME280;4574;51.072;17.174;2023-08-21T00:30:04;100600.69;;;24.98;100.00
9077;BME280;4574;51.072;17.174;2023-08-21T00:32:35;100598.22;;;24.96;100.00
9077;BME280;4574;51.072;17.174;2023-08-21T00:35:04;100594.91;;;24.94;100.00
9077;BME280;4574;51.072;17.174;2023-08-21T00:37:33;100595.13;;;24.93;100.00
9077;BME280;4574;51.072;17.174;2023-08-21T00:40:02;100597.84;;;24.93;100.00
9077;BME280;4574;51.072;17.174;2023-08-21T00:42:31;100602.66;;;24.91;100.00
9077;BME280;4574;51.072;17.174;2023-08-21T00:44:59;100607.50;;;24.89;100.00
9077;BME280;4574;51.072;17.174;2023-08-21T00:47:28;100606.88;;;24.87;100.00
9077;BME280;4574;51.072;17.174;2023-08-21T00:49:58;100592.75;;;24.85;100.00
9077;BME280;4574;51.072;17.174;2023-08-21T00:52:26;100598.16;;;24.85;100.00
9077;BME280;4574;51.072;17.174;2023-08-21T00:54:55;100589.44;;;24.83;100.00
9077;BME280;4574;51.072;17.174;2023-08-21T00:57:24;100590.75;;;24.80;100.00
9077;BME280;4574;51.072;17.174;2023-08-21T00:59:53;100592.47;;;24.75;100.00
9077;BME280;4574;51.072;17.174;2023-08-21T01:02:22;100589.16;;;24.73;100.00
9077;BME280;4574;51.072;17.174;2023-08-21T01:04:50;100590.69;;;24.69;100.00
9077;BME280;4574;51.072;17.174;2023-08-21T01:07:20;100584.97;;;24.59;100.00
9077;BME280;4574;51.072;17.174;2023-08-21T01:09:52;100580.22;;;24.54;100.00
9077;BME280;4574;51.072;17.174;2023-08-21T01:12:28;100569.66;;;24.53;100.00
9077;BME280;4574;51.072;17.174;2023-08-21T01:15:00;100574.69;;;24.50;100.00
9077;BME280;4574;51.072;17.174;2023-08-21T01:17:30;100570.75;;;24.46;100.00
9077;BME280;4574;51.072;17.174;2023-08-21T01:19:59;100564.13;;;24.42;100.00
9077;BME280;4574;51.072;17.174;2023-08-21T01:22:37;100573.69;;;24.44;100.00
9077;BME280;4574;51.072;17.174;2023-08-21T01:25:08;100573.31;;;24.41;100.00
9077;BME280;4574;51.072;17.174;2023-08-21T01:27:37;100569.53;;;24.42;100.00
9077;BME280;4574;51.072;17.174;2023-08-21T01:30:07;100574.16;;;24.41;100.00
9077;BME280;4574;51.072;17.174;2023-08-21T01:32:40;100577.06;;;24.40;100.00
9077;BME280;4574;51.072;17.174;2023-08-21T01:35:11;100584.38;;;24.39;100.00
9077;BME280;4574;51.072;17.174;2023-08-21T01:37:41;100594.34;;;24.39;100.00
9077;BME280;4574;51.072;17.174;2023-08-21T01:40:12;100586.25;;;24.39;100.00
9077;BME280;4574;51.072;17.174;2023-08-21T01:42:47;100582.94;;;24.37;100.00
9077;BME280;4574;51.072;17.174;2023-08-21T01:45:16;100589.19;;;24.37;100.00
9077;BME280;4574;51.072;17.174;2023-08-21T01:47:45;100582.94;;;24.37;100.00
9077;BME280;4574;51.072;17.174;2023-08-21T01:50:14;100579.88;;;24.33;100.00
9077;BME280;4574;51.072;17.174;2023-08-21T01:52:42;100582.34;;;24.35;100.00
9077;BME280;4574;51.072;17.174;2023-08-21T01:55:12;100576.91;;;24.35;100.00
9077;BME280;4574;51.072;17.174;2023-08-21T01:57:41;100571.75;;;24.33;100.00
9077;BME280;4574;51.072;17.174;2023-08-21T02:00:11;100576.09;;;24.34;100.00
9077;BME280;4574;51.072;17.174;2023-08-21T02:02:40;100597.97;;;24.33;100.00
9077;BME280;4574;51.072;17.174;2023-08-21T02:05:09;100603.47;;;24.26;100.00
9077;BME280;4574;51.072;17.174;2023-08-21T02:07:38;100602.72;;;24.19;100.00
9077;BME280;4574;51.072;17.174;2023-08-21T02:10:07;100600.31;;;24.11;100.00
9077;BME280;4574;51.072;17.174;2023-08-21T02:12:37;100598.66;;;24.10;100.00
9077;BME280;4574;51.072;17.174;2023-08-21T02:15:09;100592.81;;;24.13;100.00
9077;BME280;4574;51.072;17.174;2023-08-21T02:17:39;100596.31;;;24.14;100.00
9077;BME280;4574;51.072;17.174;2023-08-21T02:20:10;100599.41;;;24.17;100.00
9077;BME280;4574;51.072;17.174;2023-08-21T02:22:39;100608.13;;;24.19;100.00
9077;BME280;4574;51.072;17.174;2023-08-21T02:25:08;100616.25;;;24.19;100.00
9077;BME280;4574;51.072;17.174;2023-08-21T02:27:38;100620.63;;;24.20;100.00
9077;BME280;4574;51.072;17.174;2023-08-21T02:30:07;100610.00;;;24.19;100.00
9077;BME280;4574;51.072;17.174;2023-08-21T02:32:35;100616.84;;;24.21;100.00
9077;BME280;4574;51.072;17.174;2023-08-21T02:35:06;100622.25;;;24.21;100.00
9077;BME280;4574;51.072;17.174;2023-08-21T02:37:35;100624.38;;;24.19;100.00
9077;BME280;4574;51.072;17.174;2023-08-21T02:40:07;100625.72;;;24.10;100.00
9077;BME280;4574;51.072;17.174;2023-08-21T02:42:38;100635.47;;;23.93;100.00
9077;BME280;4574;51.072;17.174;2023-08-21T02:45:08;100633.53;;;23.69;100.00
9077;BME280;4574;51.072;17.174;2023-08-21T02:47:37;100657.03;;;23.44;100.00
9077;BME280;4574;51.072;17.174;2023-08-21T02:50:08;100667.06;;;23.37;100.00
9077;BME280;4574;51.072;17.174;2023-08-21T02:52:37;100682.50;;;23.30;100.00
9077;BME280;4574;51.072;17.174;2023-08-21T02:55:06;100701.06;;;23.20;100.00
9077;BME280;4574;51.072;17.174;2023-08-21T02:57:35;100734.31;;;23.21;100.00
9077;BME280;4574;51.072;17.174;2023-08-21T03:00:06;100734.16;;;23.10;100.00
9077;BME280;4574;51.072;17.174;2023-08-21T03:02:35;100732.69;;;23.01;100.00
9077;BME280;4574;51.072;17.174;2023-08-21T03:05:05;100744.13;;;23.03;100.00
9077;BME280;4574;51.072;17.174;2023-08-21T03:07:34;100730.63;;;23.03;100.00
9077;BME280;4574;51.072;17.174;2023-08-21T03:10:03;100711.50;;;23.04;100.00
9077;BME280;4574;51.072;17.174;2023-08-21T03:12:32;100701.34;;;23.00;100.00
9077;BME280;4574;51.072;17.174;2023-08-21T03:15:00;100682.25;;;22.95;100.00
9077;BME280;4574;51.072;17.174;2023-08-21T03:17:30;100667.69;;;22.96;100.00
9077;BME280;4574;51.072;17.174;2023-08-21T03:19:59;100648.16;;;23.00;100.00
9077;BME280;4574;51.072;17.174;2023-08-21T03:22:27;100647.75;;;22.97;100.00
9077;BME280;4574;51.072;17.174;2023-08-21T03:24:56;100631.97;;;23.00;100.00
9077;BME280;4574;51.072;17.174;2023-08-21T03:27:24;100628.16;;;23.08;100.00
9077;BME280;4574;51.072;17.174;2023-08-21T03:29:53;100640.38;;;23.16;100.00
9077;BME280;4574;51.072;17.174;2023-08-21T03:32:21;100639.09;;;23.25;100.00
9077;BME280;4574;51.072;17.174;2023-08-21T03:34:51;100632.59;;;23.33;100.00
9077;BME280;4574;51.072;17.174;2023-08-21T03:37:19;100631.50;;;23.40;100.00
9077;BME280;4574;51.072;17.174;2023-08-21T03:39:48;100623.78;;;23.44;100.00
9077;BME280;4574;51.072;17.174;2023-08-21T03:42:17;100633.09;;;23.48;100.00
9077;BME280;4574;51.072;17.174;2023-08-21T03:44:45;100638.28;;;23.49;100.00
9077;BME280;4574;51.072;17.174;2023-08-21T03:47:17;100650.09;;;23.55;100.00
9077;BME280;4574;51.072;17.174;2023-08-21T03:49:45;100642.81;;;23.55;100.00
9077;BME280;4574;51.072;17.174;2023-08-21T03:52:16;100661.91;;;23.60;100.00
9077;BME280;4574;51.072;17.174;2023-08-21T03:54:45;100658.59;;;23.58;100.00
9077;BME280;4574;51.072;17.174;2023-08-21T03:57:13;100656.72;;;23.59;100.00
9077;BME280;4574;51.072;17.174;2023-08-21T03:59:42;100668.53;;;23.64;100.00
9077;BME280;4574;51.072;17.174;2023-08-21T04:02:11;100679.34;;;23.64;100.00
9077;BME280;4574;51.072;17.174;2023-08-21T04:04:39;100673.13;;;23.64;100.00
9077;BME280;4574;51.072;17.174;2023-08-21T04:07:07;100667.13;;;23.55;100.00
9077;BME280;4574;51.072;17.174;2023-08-21T04:09:37;100659.47;;;23.52;100.00
9077;BME280;4574;51.072;17.174;2023-08-21T04:12:07;100669.22;;;23.53;100.00
9077;BME280;4574;51.072;17.174;2023-08-21T04:14:35;100674.03;;;23.51;100.00
9077;BME280;4574;51.072;17.174;2023-08-21T04:17:04;100668.00;;;23.49;100.00
9077;BME280;4574;51.072;17.174;2023-08-21T04:19:32;100674.03;;;23.51;100.00
9077;BME280;4574;51.072;17.174;2023-08-21T04:22:01;100684.84;;;23.51;100.00
9077;BME280;4574;51.072;17.174;2023-08-21T04:24:30;100666.53;;;23.53;100.00
9077;BME280;4574;51.072;17.174;2023-08-21T04:26:59;100651.63;;;23.44;100.00
9077;BME280;4574;51.072;17.174;2023-08-21T04:29:28;100660.75;;;23.50;100.00
9077;BME280;4574;51.072;17.174;2023-08-21T04:31:57;100675.69;;;23.52;100.00
9077;BME280;4574;51.072;17.174;2023-08-21T04:34:25;100692.34;;;23.49;100.00
9077;BME280;4574;51.072;17.174;2023-08-21T04:36:54;100698.41;;;23.45;100.00
9077;BME280;4574;51.072;17.174;2023-08-21T04:39:22;100701.22;;;23.32;100.00
9077;BME280;4574;51.072;17.174;2023-08-21T04:41:51;100711.41;;;23.30;100.00
9077;BME280;4574;51.072;17.174;2023-08-21T04:44:21;100707.06;;;23.22;100.00
9077;BME280;4574;51.072;17.174;2023-08-21T04:46:50;100693.38;;;23.17;100.00
9077;BME280;4574;51.072;17.174;2023-08-21T04:49:18;100695.88;;;23.19;100.00
9077;BME280;4574;51.072;17.174;2023-08-21T04:51:46;100698.97;;;23.22;100.00
9077;BME280;4574;51.072;17.174;2023-08-21T04:54:15;100698.75;;;23.24;100.00
9077;BME280;4574;51.072;17.174;2023-08-21T04:56:43;100705.22;;;23.16;100.00
9077;BME280;4574;51.072;17.174;2023-08-21T04:59:12;100685.53;;;23.10;100.00
9077;BME280;4574;51.072;17.174;2023-08-21T05:01:42;100681.88;;;22.85;100.00
9077;BME280;4574;51.072;17.174;2023-08-21T05:04:11;100685.25;;;22.74;100.00
9077;BME280;4574;51.072;17.174;2023-08-21T05:06:40;100686.69;;;22.76;100.00
9077;BME280;4574;51.072;17.174;2023-08-21T05:09:08;100691.03;;;22.77;100.00
9077;BME280;4574;51.072;17.174;2023-08-21T05:11:36;100695.63;;;22.77;100.00
9077;BME280;4574;51.072;17.174;2023-08-21T05:14:05;100713.69;;;22.76;100.00
9077;BME280;4574;51.072;17.174;2023-08-21T05:16:33;100712.44;;;22.79;100.00
9077;BME280;4574;51.072;17.174;2023-08-21T05:19:03;100717.41;;;22.75;100.00
9077;BME280;4574;51.072;17.174;2023-08-21T05:21:32;100715.97;;;22.73;100.00
9077;BME280;4574;51.072;17.174;2023-08-21T05:24:00;100718.06;;;22.71;100.00
9077;BME280;4574;51.072;17.174;2023-08-21T05:26:29;100720.72;;;22.77;100.00
9077;BME280;4574;51.072;17.174;2023-08-21T05:28:58;100717.41;;;22.82;100.00
9077;BME280;4574;51.072;17.174;2023-08-21T05:31:26;100718.44;;;22.81;100.00
9077;BME280;4574;51.072;17.174;2023-08-21T05:33:55;100724.47;;;22.83;100.00
9077;BME280;4574;51.072;17.174;2023-08-21T05:36:25;100718.25;;;22.76;100.00
9077;BME280;4574;51.072;17.174;2023-08-21T05:38:53;100729.06;;;22.76;100.00
9077;BME280;4574;51.072;17.174;2023-08-21T05:41:22;100743.78;;;22.80;100.00
9077;BME280;4574;51.072;17.174;2023-08-21T05:43:50;100735.88;;;22.78;100.00
9077;BME280;4574;51.072;17.174;2023-08-21T05:46:19;100728.44;;;22.74;100.00
9077;BME280;4574;51.072;17.174;2023-08-21T05:48:47;100723.03;;;22.74;100.00
9077;BME280;4574;51.072;17.174;2023-08-21T05:51:15;100720.53;;;22.79;100.00
9077;BME280;4574;51.072;17.174;2023-08-21T05:53:46;100727.63;;;22.60;100.00
9077;BME280;4574;51.072;17.174;2023-08-21T05:56:14;100734.69;;;22.68;100.00
9077;BME280;4574;51.072;17.174;2023-08-21T05:58:43;100733.41;;;22.70;100.00
9077;BME280;4574;51.072;17.174;2023-08-21T06:01:11;100724.50;;;22.70;100.00
9077;BME280;4574;51.072;17.174;2023-08-21T06:03:40;100718.69;;;22.73;100.00
9077;BME280;4574;51.072;17.174;2023-08-21T06:06:08;100725.75;;;22.74;100.00
9077;BME280;4574;51.072;17.174;2023-08-21T06:08:37;100733.00;;;22.80;100.00
9077;BME280;4574;51.072;17.174;2023-08-21T06:11:07;100740.44;;;22.84;100.00
9077;BME280;4574;51.072;17.174;2023-08-21T06:13:35;100741.25;;;22.91;100.00
9077;BME280;4574;51.072;17.174;2023-08-21T06:16:04;100737.50;;;22.99;100.00
9077;BME280;4574;51.072;17.174;2023-08-21T06:18:33;100731.72;;;22.82;100.00
9077;BME280;4574;51.072;17.174;2023-08-21T06:21:01;100731.94;;;22.81;100.00
9077;BME280;4574;51.072;17.174;2023-08-21T06:23:30;100731.72;;;22.82;100.00
9077;BME280;4574;51.072;17.174;2023-08-21T06:25:58;100731.66;;;22.95;100.00
9077;BME280;4574;51.072;17.174;2023-08-21T06:28:28;100728.34;;;23.00;100.00
9077;BME280;4574;51.072;17.174;2023-08-21T06:30:57;100721.50;;;22.97;100.00
9077;BME280;4574;51.072;17.174;2023-08-21T06:33:26;100748.91;;;23.01;100.00
9077;BME280;4574;51.072;17.174;2023-08-21T06:35:54;100763.47;;;22.93;100.00
9077;BME280;4574;51.072;17.174;2023-08-21T06:38:23;100761.22;;;22.77;100.00
9077;BME280;4574;51.072;17.174;2023-08-21T06:40:51;100773.31;;;22.75;100.00
9077;BME280;4574;51.072;17.174;2023-08-21T06:43:20;100782.41;;;22.87;100.00
9077;BME280;4574;51.072;17.174;2023-08-21T06:45:50;100786.94;;;22.99;100.00
9077;BME280;4574;51.072;17.174;2023-08-21T06:48:19;100784.88;;;23.01;100.00
9077;BME280;4574;51.072;17.174;2023-08-21T06:50:47;100785.88;;;23.07;100.00
9077;BME280;4574;51.072;17.174;2023-08-21T06:53:16;100774.44;;;23.05;100.00
9077;BME280;4574;51.072;17.174;2023-08-21T06:55:45;100778.47;;;22.83;100.00
9077;BME280;4574;51.072;17.174;2023-08-21T06:58:13;100769.53;;;22.82;100.00
9077;BME280;4574;51.072;17.174;2023-08-21T07:00:42;100763.94;;;22.77;100.00
9077;BME280;4574;51.072;17.174;2023-08-21T07:03:12;100768.53;;;22.77;100.00
9077;BME280;4574;51.072;17.174;2023-08-21T07:05:40;100770.41;;;22.70;100.00
9077;BME280;4574;51.072;17.174;2023-08-21T07:08:09;100766.81;;;22.82;100.00
9077;BME280;4574;51.072;17.174;2023-08-21T07:10:37;100780.72;;;22.99;100.00
9077;BME280;4574;51.072;17.174;2023-08-21T07:13:06;100765.53;;;23.04;100.00
9077;BME280;4574;51.072;17.174;2023-08-21T07:15:35;100792.28;;;23.25;100.00
9077;BME280;4574;51.072;17.174;2023-08-21T07:18:04;100799.50;;;23.37;100.00
9077;BME280;4574;51.072;17.174;2023-08-21T07:20:33;100788.00;;;23.48;100.00
9077;BME280;4574;51.072;17.174;2023-08-21T07:23:02;100789.66;;;23.49;100.00
9077;BME280;4574;51.072;17.174;2023-08-21T07:25:31;100793.94;;;23.63;100.00
9077;BME280;4574;51.072;17.174;2023-08-21T07:27:59;100791.84;;;23.65;100.00
9077;BME280;4574;51.072;17.174;2023-08-21T07:30:28;100791.41;;;23.68;100.00
9077;BME280;4574;51.072;17.174;2023-08-21T07:32:57;100801.19;;;23.69;100.00
9077;BME280;4574;51.072;17.174;2023-08-21T07:35:26;100800.81;;;23.66;100.00
9077;BME280;4574;51.072;17.174;2023-08-21T07:37:56;100809.13;;;23.64;100.00
9077;BME280;4574;51.072;17.174;2023-08-21T07:40:24;100813.91;;;23.62;100.00
9077;BME280;4574;51.072;17.174;2023-08-21T07:42:53;100812.44;;;23.66;100.00
9077;BME280;4574;51.072;17.174;2023-08-21T07:45:21;100811.22;;;23.62;100.00
9077;BME280;4574;51.072;17.174;2023-08-21T07:47:50;100811.22;;;23.62;100.00
9077;BME280;4574;51.072;17.174;2023-08-21T07:50:34;100803.72;;;23.64;100.00
9077;BME280;4574;51.072;17.174;2023-08-21T07:53:04;100805.84;;;23.56;100.00
9077;BME280;4574;51.072;17.174;2023-08-21T07:55:33;100808.31;;;23.57;100.00
9077;BME280;4574;51.072;17.174;2023-08-21T07:58:01;100809.41;;;23.50;100.00
9077;BME280;4574;51.072;17.174;2023-08-21T08:00:31;100797.56;;;23.51;100.00
9077;BME280;4574;51.072;17.174;2023-08-21T08:03:00;100808.94;;;23.59;100.00
9077;BME280;4574;51.072;17.174;2023-08-21T08:05:28;100801.69;;;23.53;100.00
9077;BME280;4574;51.072;17.174;2023-08-21T08:08:00;100808.06;;;23.65;100.00
9077;BME280;4574;51.072;17.174;2023-08-21T08:10:30;100824.53;;;23.64;100.00
9077;BME280;4574;51.072;17.174;2023-08-21T08:12:59;100821.16;;;23.68;100.00
9077;BME280;4574;51.072;17.174;2023-08-21T08:15:30;100814.09;;;23.67;100.00
9077;BME280;4574;51.072;17.174;2023-08-21T08:17:58;100804.91;;;23.75;100.00
9077;BME280;4574;51.072;17.174;2023-08-21T08:20:27;100805.72;;;23.75;100.00
9077;BME280;4574;51.072;17.174;2023-08-21T08:22:55;100817.56;;;23.87;100.00
9077;BME280;4574;51.072;17.174;2023-08-21T08:25:24;100803.22;;;23.80;100.00
9077;BME280;4574;51.072;17.174;2023-08-21T08:27:54;100807.78;;;23.86;100.00
9077;BME280;4574;51.072;17.174;2023-08-21T08:30:22;100809.03;;;23.90;100.00
9077;BME280;4574;51.072;17.174;2023-08-21T08:32:51;100808.47;;;24.06;100.00
9077;BME280;4574;51.072;17.174;2023-08-21T08:35:19;100794.19;;;24.24;100.00
9077;BME280;4574;51.072;17.174;2023-08-21T08:37:48;100797.44;;;24.32;100.00
9077;BME280;4574;51.072;17.174;2023-08-21T08:40:16;100790.09;;;24.39;100.00
9077;BME280;4574;51.072;17.174;2023-08-21T08:42:45;100780.59;;;24.54;100.00
9077;BME280;4574;51.072;17.174;2023-08-21T08:45:27;100784.16;;;24.73;100.00
9077;BME280;4574;51.072;17.174;2023-08-21T08:47:59;100781.72;;;24.89;100.00
9077;BME280;4574;51.072;17.174;2023-08-21T08:50:31;100777.72;;;24.92;100.00
9077;BME280;4574;51.072;17.174;2023-08-21T08:53:01;100782.06;;;24.93;100.00
9077;BME280;4574;51.072;17.174;2023-08-21T08:55:42;100792.31;;;25.09;100.00
9077;BME280;4574;51.072;17.174;2023-08-21T08:58:11;100793.50;;;25.13;100.00
9077;BME280;4574;51.072;17.174;2023-08-21T09:00:42;100794.44;;;25.25;100.00
9077;BME280;4574;51.072;17.174;2023-08-21T09:03:10;100798.03;;;25.37;100.00
9077;BME280;4574;51.072;17.174;2023-08-21T09:05:40;100797.03;;;25.49;100.00
9077;BME280;4574;51.072;17.174;2023-08-21T09:08:12;100794.41;;;25.61;100.00
9077;BME280;4574;51.072;17.174;2023-08-21T09:10:42;100794.41;;;25.61;100.00
9077;BME280;4574;51.072;17.174;2023-08-21T09:13:13;100797.06;;;25.79;100.00
9077;BME280;4574;51.072;17.174;2023-08-21T09:15:45;100794.03;;;25.87;100.00
9077;BME280;4574;51.072;17.174;2023-08-21T09:18:14;100801.41;;;26.09;100.00
9077;BME280;4574;51.072;17.174;2023-08-21T09:20:43;100802.50;;;26.19;100.00
9077;BME280;4574;51.072;17.174;2023-08-21T09:23:13;100795.19;;;26.31;100.00
9077;BME280;4574;51.072;17.174;2023-08-21T09:25:45;100791.91;;;26.41;100.00
9077;BME280;4574;51.072;17.174;2023-08-21T09:28:19;100788.56;;;26.27;100.00
9077;BME280;4574;51.072;17.174;2023-08-21T09:30:51;100787.03;;;26.31;100.00
9077;BME280;4574;51.072;17.174;2023-08-21T09:33:21;100782.91;;;26.29;100.00
9077;BME280;4574;51.072;17.174;2023-08-21T09:35:51;100793.78;;;26.40;100.00
9077;BME280;4574;51.072;17.174;2023-08-21T09:38:20;100795.13;;;26.49;100.00
9077;BME280;4574;51.072;17.174;2023-08-21T09:40:53;100794.19;;;26.55;100.00
9077;BME280;4574;51.072;17.174;2023-08-21T09:43:22;100787.44;;;26.46;100.00
9077;BME280;4574;51.072;17.174;2023-08-21T09:45:54;100785.63;;;26.40;100.00
9077;BME280;4574;51.072;17.174;2023-08-21T09:48:24;100786.44;;;26.18;100.00
9077;BME280;4574;51.072;17.174;2023-08-21T09:50:54;100783.38;;;26.14;100.00
9077;BME280;4574;51.072;17.174;2023-08-21T09:53:23;100787.47;;;26.05;100.00
9077;BME280;4574;51.072;17.174;2023-08-21T09:55:53;100779.72;;;26.20;100.00
9077;BME280;4574;51.072;17.174;2023-08-21T09:58:22;100779.59;;;26.15;100.00
9077;BME280;4574;51.072;17.174;2023-08-21T10:00:57;100766.44;;;26.01;100.00
9077;BME280;4574;51.072;17.174;2023-08-21T10:03:26;100769.09;;;26.30;99.44
9077;BME280;4574;51.072;17.174;2023-08-21T10:05:58;100767.22;;;26.42;97.64
9077;BME280;4574;51.072;17.174;2023-08-21T10:08:27;100758.84;;;26.44;96.35
9077;BME280;4574;51.072;17.174;2023-08-21T10:10:57;100764.06;;;26.57;98.34
9077;BME280;4574;51.072;17.174;2023-08-21T10:13:30;100765.59;;;26.64;95.79
9077;BME280;4574;51.072;17.174;2023-08-21T10:16:01;100772.09;;;26.52;91.25
9077;BME280;4574;51.072;17.174;2023-08-21T10:18:32;100756.50;;;26.59;92.47
9077;BME280;4574;51.072;17.174;2023-08-21T10:21:14;100764.28;;;26.90;91.81
9077;BME280;4574;51.072;17.174;2023-08-21T10:23:46;100754.91;;;27.09;91.41
9077;BME280;4574;51.072;17.174;2023-08-21T10:26:15;100751.81;;;27.05;90.06
9077;BME280;4574;51.072;17.174;2023-08-21T10:28:50;100768.84;;;27.12;89.64
9077;BME280;4574;51.072;17.174;2023-08-21T10:31:28;100767.16;;;27.23;90.26
9077;BME280;4574;51.072;17.174;2023-08-21T10:33:58;100749.66;;;27.30;90.48
9077;BME280;4574;51.072;17.174;2023-08-21T10:39:31;100772.31;;;27.08;90.06
9077;BME280;4574;51.072;17.174;2023-08-21T10:42:02;100768.59;;;27.02;90.02
9077;BME280;4574;51.072;17.174;2023-08-21T10:44:48;100757.16;;;27.12;90.93
9077;BME280;4574;51.072;17.174;2023-08-21T10:47:21;100766.94;;;27.24;90.62
9077;BME280;4574;51.072;17.174;2023-08-21T10:49:52;100769.19;;;27.04;90.35
9077;BME280;4574;51.072;17.174;2023-08-21T10:52:23;100770.25;;;27.03;92.07
9077;BME280;4574;51.072;17.174;2023-08-21T10:54:53;100768.47;;;27.20;91.93
9077;BME280;4574;51.072;17.174;2023-08-21T10:57:22;100764.09;;;27.19;92.12
9077;BME280;4574;51.072;17.174;2023-08-21T10:59:55;100764.66;;;27.33;90.78
9077;BME280;4574;51.072;17.174;2023-08-21T11:02:27;100764.38;;;27.45;91.00
9077;BME280;4574;51.072;17.174;2023-08-21T11:04:56;100768.31;;;27.66;91.49
9077;BME280;4574;51.072;17.174;2023-08-21T11:07:26;100771.31;;;27.53;90.33
9077;BME280;4574;51.072;17.174;2023-08-21T11:09:55;100773.28;;;27.69;90.37
9077;BME280;4574;51.072;17.174;2023-08-21T11:12:24;100769.19;;;27.83;89.55
9077;BME280;4574;51.072;17.174;2023-08-21T11:14:53;100767.47;;;27.93;90.14
9077;BME280;4574;51.072;17.174;2023-08-21T11:17:21;100768.97;;;28.01;89.10
9077;BME280;4574;51.072;17.174;2023-08-21T11:19:51;100769.78;;;28.01;88.46
9077;BME280;4574;51.072;17.174;2023-08-21T11:22:20;100760.03;;;28.05;90.79
9077;BME280;4574;51.072;17.174;2023-08-21T11:24:49;100764.75;;;28.10;89.37
9077;BME280;4574;51.072;17.174;2023-08-21T11:27:19;100759.09;;;28.11;89.31
9077;BME280;4574;51.072;17.174;2023-08-21T11:29:52;100745.38;;;27.90;89.68
9077;BME280;4574;51.072;17.174;2023-08-21T11:32:22;100756.84;;;27.92;90.15
9077;BME280;4574;51.072;17.174;2023-08-21T11:34:54;100752.81;;;28.11;92.41
9077;BME280;4574;51.072;17.174;2023-08-21T11:37:25;100748.84;;;28.35;91.01
9077;BME280;4574;51.072;17.174;2023-08-21T11:39:55;100738.19;;;28.50;89.88
9077;BME280;4574;51.072;17.174;2023-08-21T11:42:29;100734.97;;;28.20;89.34
9077;BME280;4574;51.072;17.174;2023-08-21T11:44:59;100735.16;;;28.46;89.79
9077;BME280;4574;51.072;17.174;2023-08-21T11:47:31;100728.94;;;28.88;88.45
9077;BME280;4574;51.072;17.174;2023-08-21T11:50:04;100731.81;;;29.20;87.82
9077;BME280;4574;51.072;17.174;2023-08-21T11:52:33;100730.31;;;29.07;86.76
9077;BME280;4574;51.072;17.174;2023-08-21T11:55:08;100739.50;;;29.44;85.83
9077;BME280;4574;51.072;17.174;2023-08-21T11:57:46;100738.41;;;29.45;86.11
9077;BME280;4574;51.072;17.174;2023-08-21T12:00:17;100728.97;;;29.84;86.85
9077;BME280;4574;51.072;17.174;2023-08-21T12:02:55;100742.41;;;30.22;85.96
9077;BME280;4574;51.072;17.174;2023-08-21T12:05:26;100743.16;;;30.49;84.99
9077;BME280;4574;51.072;17.174;2023-08-21T12:07:55;100737.91;;;30.74;84.05
9077;BME280;4574;51.072;17.174;2023-08-21T12:10:24;100739.13;;;31.03;83.58
9077;BME280;4574;51.072;17.174;2023-08-21T12:12:53;100737.59;;;31.22;80.59
9077;BME280;4574;51.072;17.174;2023-08-21T12:15:23;100725.84;;;31.31;80.82
9077;BME280;4574;51.072;17.174;2023-08-21T12:17:51;100722.31;;;31.46;81.60
9077;BME280;4574;51.072;17.174;2023-08-21T12:20:20;100720.91;;;31.28;74.61
9077;BME280;4574;51.072;17.174;2023-08-21T12:22:50;100718.19;;;30.67;74.56
9077;BME280;4574;51.072;17.174;2023-08-21T12:25:19;100736.31;;;30.88;72.36
9077;BME280;4574;51.072;17.174;2023-08-21T12:27:48;100730.72;;;31.14;73.01
9077;BME280;4574;51.072;17.174;2023-08-21T12:30:30;100734.59;;;31.28;72.28
9077;BME280;4574;51.072;17.174;2023-08-21T12:32:58;100724.69;;;31.17;70.66
9077;BME280;4574;51.072;17.174;2023-08-21T12:35:42;100724.19;;;31.35;71.02
9077;BME280;4574;51.072;17.174;2023-08-21T12:38:12;100720.72;;;31.60;68.71
9077;BME280;4574;51.072;17.174;2023-08-21T12:40:41;100710.03;;;31.48;70.42
9077;BME280;4574;51.072;17.174;2023-08-21T12:43:09;100707.06;;;31.70;71.12
9077;BME280;4574;51.072;17.174;2023-08-21T12:45:38;100701.88;;;31.73;69.89
9077;BME280;4574;51.072;17.174;2023-08-21T12:48:06;100709.81;;;31.94;68.08
9077;BME280;4574;51.072;17.174;2023-08-21T12:50:35;100697.19;;;31.93;67.93
9077;BME280;4574;51.072;17.174;2023-08-21T12:53:04;100692.56;;;31.74;68.79
9077;BME280;4574;51.072;17.174;2023-08-21T12:55:34;100699.88;;;31.54;67.81
9077;BME280;4574;51.072;17.174;2023-08-21T12:58:03;100694.75;;;31.72;68.33
9077;BME280;4574;51.072;17.174;2023-08-21T13:00:32;100694.47;;;31.88;67.47
9077;BME280;4574;51.072;17.174;2023-08-21T13:03:00;100695.00;;;31.85;67.46
9077;BME280;4574;51.072;17.174;2023-08-21T13:05:30;100687.09;;;31.79;66.72
9077;BME280;4574;51.072;17.174;2023-08-21T13:07:58;100692.28;;;32.25;65.98